Saint-Timothee, Canada
Current Conditions -  °F | °C
As of 1:00 AM on Sunday 26 Oct 2014 (Local Time) from CYUL Reporting Station
Broken Clouds Broken Clouds  
Wind Chill: 44°   Ceiling: 22000
Heat Index: 48°   Visibility: 15mi
Dew Point: 45°   Wind: 9mph
Humidity: 87%   Direction: 250°WSW
Pressure: 29.4"   Gusts: NA
Location:  45.28°N, 74.05°W
Report Text: CYUL 260500Z 25008KT 15SM FEW010 SCT100 BKN220 09/07 A2940 RMK SF1AC3CI4 SF TR SLP958
Loading
Personal Weather Stations






























Interactive Weather Map
Tropical Storm Tracking
New forecast layout! Learn more

10-Day Weather Forecast

Advertisements
Track Severe Weather on mobile